createdAt,value
2018-06-13T00:00:17.280Z,100506.41
2018-06-13T00:01:20.705Z,100511.15
2018-06-13T00:02:24.108Z,100509.18
2018-06-13T00:03:27.576Z,100512.53
2018-06-13T00:04:30.984Z,100513.92
2018-06-13T00:05:34.361Z,100513.11
2018-06-13T00:06:37.801Z,100507.80
2018-06-13T00:07:41.233Z,100511.95
2018-06-13T00:08:44.633Z,100508.59
2018-06-13T00:09:48.112Z,100506.05
2018-06-13T00:10:51.536Z,100497.42
2018-06-13T00:11:54.956Z,100506.27
2018-06-13T00:12:58.371Z,100507.44
2018-06-13T00:14:01.755Z,100509.84
2018-06-13T00:15:05.387Z,100512.84
2018-06-13T00:16:08.792Z,100512.25
2018-06-13T00:17:12.209Z,100510.87
2018-06-13T00:18:15.642Z,100513.64
2018-06-13T00:19:19.032Z,100514.45
2018-06-13T00:20:22.439Z,100516.41
2018-06-13T00:21:25.836Z,100519.19
2018-06-13T00:22:29.241Z,100517.80
2018-06-13T00:23:32.676Z,100518.96
2018-06-13T00:24:36.095Z,100522.76
2018-06-13T00:25:39.462Z,100523.56
2018-06-13T00:26:42.876Z,100518.02
2018-06-13T00:27:46.314Z,100522.17
2018-06-13T00:28:49.728Z,100517.22
2018-06-13T00:29:53.120Z,100520.34
2018-06-13T00:30:56.498Z,100526.11
2018-06-13T00:31:59.900Z,100518.16
2018-06-13T00:33:03.406Z,100528.89
2018-06-13T00:34:06.892Z,100534.43
2018-06-13T00:35:10.286Z,100527.86
2018-06-13T00:36:13.769Z,100531.21
2018-06-13T00:37:17.157Z,100542.52
2018-06-13T00:38:20.572Z,100535.01
2018-06-13T00:39:24.084Z,100533.98
2018-06-13T00:40:27.477Z,100528.22
2018-06-13T00:41:30.889Z,100535.14
2018-06-13T00:42:34.286Z,100532.37
2018-06-13T00:43:37.677Z,100536.75
2018-06-13T00:44:41.069Z,100536.53
2018-06-13T00:45:44.511Z,100530.19
2018-06-13T00:46:47.910Z,100525.23
2018-06-13T00:47:51.281Z,100530.98
2018-06-13T00:48:54.696Z,100530.77
2018-06-13T00:49:58.184Z,100534.70
2018-06-13T00:51:01.581Z,100529.73
2018-06-13T00:52:04.981Z,100531.34
2018-06-13T00:53:08.407Z,100531.93
2018-06-13T00:54:11.867Z,100531.34
2018-06-13T00:55:15.271Z,100530.19
2018-06-13T00:56:30.694Z,100530.77
2018-06-13T00:57:34.091Z,100530.77
2018-06-13T00:58:37.499Z,100535.73
2018-06-13T00:59:40.902Z,100541.05
2018-06-13T01:00:46.067Z,100538.86
2018-06-13T01:01:49.469Z,100542.44
2018-06-13T01:02:52.910Z,100544.41
2018-06-13T01:03:56.302Z,100533.56
2018-06-13T01:04:59.728Z,100540.25
2018-06-13T01:06:03.969Z,100535.86
2018-06-13T01:07:07.374Z,100545.34
2018-06-13T01:08:10.784Z,100549.50
2018-06-13T01:09:14.155Z,100547.31
2018-06-13T01:10:17.556Z,100544.18
2018-06-13T01:11:20.934Z,100547.53
2018-06-13T01:12:24.328Z,100555.05
2018-06-13T01:13:27.723Z,100553.88
2018-06-13T01:14:31.104Z,100552.27
2018-06-13T01:15:34.490Z,100550.89
2018-06-13T01:16:37.866Z,100555.05
2018-06-13T01:17:41.259Z,100552.73
2018-06-13T01:18:44.669Z,100559.78
2018-06-13T01:19:48.079Z,100558.39
2018-06-13T01:20:51.487Z,100562.77
2018-06-13T01:21:54.858Z,100560.23
2018-06-13T01:22:58.252Z,100560.45
2018-06-13T01:24:01.644Z,100555.94
2018-06-13T01:25:05.045Z,100558.92
2018-06-13T01:26:08.434Z,100559.73
2018-06-13T01:27:11.821Z,100560.76
2018-06-13T01:28:15.205Z,100551.05
2018-06-13T01:29:18.599Z,100549.89
2018-06-13T01:30:22.063Z,100549.09
2018-06-13T01:31:25.471Z,100549.45
2018-06-13T01:32:28.852Z,100551.41
2018-06-13T01:33:32.259Z,100543.10
2018-06-13T01:34:35.659Z,100549.45
2018-06-13T01:35:39.111Z,100551.41
2018-06-13T01:36:42.620Z,100552.00
2018-06-13T01:37:46.016Z,100549.22
2018-06-13T01:38:49.401Z,100553.16
2018-06-13T01:39:52.778Z,100551.78
2018-06-13T01:40:56.170Z,100554.33
2018-06-13T01:41:59.600Z,100555.70
2018-06-13T01:43:02.980Z,100554.69
2018-06-13T01:44:06.351Z,100553.88
2018-06-13T01:45:09.752Z,100551.91
2018-06-13T01:46:13.188Z,100556.66
2018-06-13T01:47:16.580Z,100551.11
2018-06-13T01:48:19.976Z,100556.06
2018-06-13T01:49:23.383Z,100555.27
2018-06-13T01:50:26.801Z,100553.88
2018-06-13T01:51:30.208Z,100552.05
2018-06-13T01:52:33.668Z,100550.91
2018-06-13T01:53:37.079Z,100553.66
2018-06-13T01:54:40.452Z,100555.95
2018-06-13T01:55:43.846Z,100550.41
2018-06-13T01:56:47.268Z,100546.83
2018-06-13T01:57:50.661Z,100555.63
2018-06-13T01:58:54.044Z,100557.34
2018-06-13T01:59:57.431Z,100556.20
2018-06-13T02:01:00.832Z,100557.01
2018-06-13T02:02:04.301Z,100553.66
2018-06-13T02:03:07.706Z,100558.98
2018-06-13T02:04:11.097Z,100542.95
2018-06-13T02:05:16.888Z,100555.73
2018-06-13T02:06:20.284Z,100554.12
2018-06-13T02:07:23.843Z,100553.09
2018-06-13T02:08:27.247Z,100549.74
2018-06-13T02:09:30.647Z,100547.33
2018-06-13T02:10:34.036Z,100551.27
2018-06-13T02:11:37.438Z,100548.84
2018-06-13T02:12:40.870Z,100546.08
2018-06-13T02:13:44.304Z,100552.78
2018-06-13T02:14:47.700Z,100555.55
2018-06-13T02:15:51.099Z,100553.36
2018-06-13T02:16:54.489Z,100556.94
2018-06-13T02:17:57.886Z,100553.36
2018-06-13T02:19:01.286Z,100555.55
2018-06-13T02:20:04.767Z,100554.53
2018-06-13T02:21:08.146Z,100550.14
2018-06-13T02:22:11.549Z,100557.88
2018-06-13T02:23:14.967Z,100550.14
2018-06-13T02:24:18.370Z,100549.56
2018-06-13T02:25:21.792Z,100549.34
2018-06-13T02:26:25.176Z,100553.27
2018-06-13T02:27:28.575Z,100552.69
2018-06-13T02:28:31.970Z,100550.28
2018-06-13T02:29:35.338Z,100553.05
2018-06-13T02:30:38.743Z,100540.59
2018-06-13T02:31:42.136Z,100552.58
2018-06-13T02:32:45.543Z,100556.73
2018-06-13T02:33:49.034Z,100555.12
2018-06-13T02:34:52.425Z,100555.12
2018-06-13T02:35:55.893Z,100558.25
2018-06-13T02:36:59.321Z,100560.22
2018-06-13T02:38:02.698Z,100560.22
2018-06-13T02:39:08.170Z,100557.22
2018-06-13T02:40:11.567Z,100558.61
2018-06-13T02:41:14.971Z,100559.98
2018-06-13T02:42:18.404Z,100555.03
2018-06-13T02:43:21.800Z,100556.77
2018-06-13T02:44:25.208Z,100559.77
2018-06-13T02:45:28.600Z,100562.77
2018-06-13T02:46:31.992Z,100562.53
2018-06-13T02:47:35.370Z,100561.73
2018-06-13T02:48:38.764Z,100559.77
2018-06-13T02:49:42.205Z,100563.12
2018-06-13T02:50:45.619Z,100560.93
2018-06-13T02:51:49.033Z,100559.77
2018-06-13T02:52:52.995Z,100563.34
2018-06-13T02:53:56.402Z,100558.96
2018-06-13T02:54:59.789Z,100563.92
2018-06-13T02:56:03.189Z,100555.39
2018-06-13T02:57:06.562Z,100557.00
2018-06-13T02:58:09.923Z,100556.19
2018-06-13T02:59:13.300Z,100557.00
2018-06-13T03:00:16.718Z,100557.00
2018-06-13T03:01:20.385Z,100548.95
2018-06-13T03:02:24.163Z,100554.00
2018-06-13T03:03:27.629Z,100555.39
2018-06-13T03:04:31.021Z,100549.84
2018-06-13T03:05:34.410Z,100552.97
2018-06-13T03:06:37.776Z,100555.39
2018-06-13T03:07:41.161Z,100554.36
2018-06-13T03:08:44.537Z,100556.55
2018-06-13T03:09:48.021Z,100559.55
2018-06-13T03:10:51.443Z,100555.97
2018-06-13T03:11:54.834Z,100557.94
2018-06-13T03:12:58.239Z,100556.69
2018-06-13T03:14:01.632Z,100559.90
2018-06-13T03:15:05.344Z,100560.48
2018-06-13T03:16:08.747Z,100556.10
2018-06-13T03:17:12.129Z,100557.48
2018-06-13T03:18:15.516Z,100559.90
2018-06-13T03:19:18.931Z,100563.83
2018-06-13T03:20:22.311Z,100564.64
2018-06-13T03:21:25.726Z,100557.71
2018-06-13T03:22:29.104Z,100563.48
2018-06-13T03:23:32.501Z,100566.25
2018-06-13T03:24:35.896Z,100560.13
2018-06-13T03:25:39.325Z,100557.62
2018-06-13T03:26:42.746Z,100567.86
2018-06-13T03:27:46.162Z,100564.50
2018-06-13T03:28:49.545Z,100559.77
2018-06-13T03:29:52.950Z,100559.98
2018-06-13T03:30:56.353Z,100565.17
2018-06-13T03:31:59.764Z,100562.41
2018-06-13T03:33:03.156Z,100567.94
2018-06-13T03:34:06.559Z,100564.81
2018-06-13T03:35:09.966Z,100561.47
2018-06-13T03:36:13.344Z,100568.39
2018-06-13T03:37:16.771Z,100558.47
2018-06-13T03:38:20.164Z,100568.87
2018-06-13T03:39:23.634Z,100566.32
2018-06-13T03:40:27.076Z,100572.09
2018-06-13T03:41:30.469Z,100568.52
2018-06-13T03:42:33.886Z,100568.52
2018-06-13T03:43:37.290Z,100572.89
2018-06-13T03:44:40.665Z,100571.51
2018-06-13T03:45:44.078Z,100562.05
2018-06-13T03:46:47.472Z,100574.05
2018-06-13T03:47:50.865Z,100568.87
2018-06-13T03:48:54.268Z,100568.87
2018-06-13T03:49:57.772Z,100571.06
2018-06-13T03:51:01.176Z,100566.42
2018-06-13T03:52:04.557Z,100570.00
2018-06-13T03:53:07.971Z,100568.97
2018-06-13T03:54:11.352Z,100574.29
2018-06-13T03:55:14.718Z,100572.68
2018-06-13T03:56:18.105Z,100574.29
2018-06-13T03:57:21.525Z,100579.61
2018-06-13T03:58:24.937Z,100581.58
2018-06-13T03:59:28.342Z,100583.31
2018-06-13T04:00:31.728Z,100582.73
2018-06-13T04:01:35.154Z,100592.20
2018-06-13T04:02:38.549Z,100584.48
2018-06-13T04:03:41.975Z,100583.45
2018-06-13T04:04:45.352Z,100584.25
2018-06-13T04:05:48.748Z,100582.86
2018-06-13T04:06:52.114Z,100576.88
2018-06-13T04:07:55.534Z,100574.91
2018-06-13T04:08:58.946Z,100582.64
2018-06-13T04:10:02.315Z,100575.49
2018-06-13T04:11:05.723Z,100578.27
2018-06-13T04:12:09.093Z,100576.66
2018-06-13T04:13:12.457Z,100580.58
2018-06-13T04:14:15.834Z,100575.63
2018-06-13T04:15:19.221Z,100572.27
2018-06-13T04:16:22.624Z,100575.05
2018-06-13T04:17:26.010Z,100572.27
2018-06-13T04:18:29.457Z,100578.62
2018-06-13T04:19:32.878Z,100571.25
2018-06-13T04:20:36.254Z,100571.47
2018-06-13T04:21:39.627Z,100566.51
2018-06-13T04:22:43.015Z,100568.70
2018-06-13T04:23:46.428Z,100571.69
2018-06-13T04:24:49.877Z,100569.73
2018-06-13T04:25:53.264Z,100568.13
2018-06-13T04:26:56.661Z,100565.58
2018-06-13T04:28:00.080Z,100569.15
2018-06-13T04:29:03.488Z,100571.34
2018-06-13T04:30:06.943Z,100569.95
2018-06-13T04:31:10.368Z,100576.30
2018-06-13T04:32:13.752Z,100572.95
2018-06-13T04:33:17.162Z,100574.55
2018-06-13T04:34:20.518Z,100570.98
2018-06-13T04:35:24.023Z,100577.55
2018-06-13T04:36:27.741Z,100573.53
2018-06-13T04:37:31.154Z,100577.33
2018-06-13T04:38:34.532Z,100577.38
2018-06-13T04:39:37.921Z,100574.33
2018-06-13T04:40:41.355Z,100579.00
2018-06-13T04:41:44.763Z,100581.56
2018-06-13T04:42:48.149Z,100570.70
2018-06-13T04:43:51.522Z,100570.01
2018-06-13T04:44:54.909Z,100585.75
2018-06-13T04:45:58.828Z,100577.55
2018-06-13T04:47:02.255Z,100577.16
2018-06-13T04:48:05.708Z,100575.28
2018-06-13T04:49:09.157Z,100583.74
2018-06-13T04:50:12.633Z,100574.77
2018-06-13T04:51:16.014Z,100579.23
2018-06-13T04:52:19.422Z,100579.30
2018-06-13T04:53:22.847Z,100577.98
2018-06-13T04:54:26.251Z,100579.11
2018-06-13T04:55:29.685Z,100575.02
2018-06-13T04:56:33.144Z,100571.78
2018-06-13T04:57:36.532Z,100571.78
2018-06-13T04:58:39.959Z,100572.34
2018-06-13T04:59:43.376Z,100573.83
2018-06-13T05:00:46.754Z,100570.86
2018-06-13T05:01:50.174Z,100572.48
2018-06-13T05:02:53.552Z,100578.00
2018-06-13T05:03:57.009Z,100567.31
2018-06-13T05:05:00.496Z,100573.42
2018-06-13T05:06:03.925Z,100575.72
2018-06-13T05:07:07.343Z,100576.73
2018-06-13T05:08:10.718Z,100580.90
2018-06-13T05:09:14.383Z,100578.92
2018-06-13T05:10:17.754Z,100584.43
2018-06-13T05:11:21.121Z,100579.86
2018-06-13T05:12:24.528Z,100576.92
2018-06-13T05:13:27.951Z,100576.52
2018-06-13T05:14:31.325Z,100574.23
2018-06-13T05:15:34.713Z,100579.01
2018-06-13T05:16:38.118Z,100577.06
2018-06-13T05:17:41.540Z,100580.90
2018-06-13T05:18:44.977Z,100579.25
2018-06-13T05:19:48.388Z,100580.09
2018-06-13T05:20:51.758Z,100581.20
2018-06-13T05:21:55.284Z,100580.55
2018-06-13T05:22:58.694Z,100584.75
2018-06-13T05:24:02.084Z,100582.70
2018-06-13T05:25:05.497Z,100580.88
2018-06-13T05:26:08.885Z,100588.44
2018-06-13T05:27:12.276Z,100583.38
2018-06-13T05:28:15.720Z,100587.19
2018-06-13T05:29:19.736Z,100586.50
2018-06-13T05:30:23.115Z,100591.58
2018-06-13T05:31:26.516Z,100592.39
2018-06-13T05:32:29.916Z,100591.58
2018-06-13T05:33:33.362Z,100592.39
2018-06-13T05:34:36.766Z,100598.14
2018-06-13T05:35:40.166Z,100594.80
2018-06-13T05:36:43.572Z,100598.58
2018-06-13T05:37:46.935Z,100598.48
2018-06-13T05:38:50.345Z,100603.92
2018-06-13T05:39:53.757Z,100599.21
2018-06-13T05:40:57.178Z,100602.20
2018-06-13T05:42:00.585Z,100600.02
2018-06-13T05:43:04.078Z,100600.74
2018-06-13T05:44:07.637Z,100601.44
2018-06-13T05:45:11.204Z,100606.19
2018-06-13T05:46:14.578Z,100606.05
2018-06-13T05:47:17.989Z,100610.42
2018-06-13T05:48:21.389Z,100608.13
2018-06-13T05:49:24.836Z,100604.53
2018-06-13T05:50:28.232Z,100604.09
2018-06-13T05:51:31.646Z,100605.80
2018-06-13T05:52:35.907Z,100603.40
2018-06-13T05:53:39.934Z,100606.41
2018-06-13T05:54:43.673Z,100606.47
2018-06-13T05:55:47.314Z,100613.39
2018-06-13T05:56:51.269Z,100606.65
2018-06-13T05:57:54.681Z,100614.72
2018-06-13T05:58:58.065Z,100611.51
2018-06-13T06:00:01.533Z,100614.05
2018-06-13T06:01:04.968Z,100606.50
2018-06-13T06:02:08.411Z,100599.59
2018-06-13T06:03:11.808Z,100602.61
2018-06-13T06:04:15.206Z,100605.49
2018-06-13T06:05:18.634Z,100599.16
2018-06-13T06:06:22.014Z,100610.25
2018-06-13T06:07:25.585Z,100610.72
2018-06-13T06:08:29.012Z,100612.80
2018-06-13T06:09:32.402Z,100617.40
2018-06-13T06:10:35.864Z,100618.67
2018-06-13T06:11:39.210Z,100616.41
2018-06-13T06:12:42.600Z,100619.40
2018-06-13T06:13:46.001Z,100619.31
2018-06-13T06:14:49.428Z,100622.55
2018-06-13T06:15:52.859Z,100629.68
2018-06-13T06:16:56.295Z,100632.67
2018-06-13T06:17:59.720Z,100634.52
2018-06-13T06:19:03.164Z,100623.70
2018-06-13T06:20:08.161Z,100618.64
2018-06-13T06:21:11.558Z,100617.94
2018-06-13T06:22:14.967Z,100630.76
2018-06-13T06:23:18.354Z,100625.46
2018-06-13T06:24:21.734Z,100630.19
2018-06-13T06:25:25.136Z,100629.27
2018-06-13T06:26:28.548Z,100632.02
2018-06-13T06:27:31.964Z,100639.39
2018-06-13T06:28:35.361Z,100629.03
2018-06-13T06:29:38.759Z,100645.16
2018-06-13T06:30:42.142Z,100641.81
2018-06-13T06:31:45.558Z,100642.05
2018-06-13T06:32:48.981Z,100635.60
2018-06-13T06:33:52.362Z,100637.56
2018-06-13T06:34:55.747Z,100637.79
2018-06-13T06:35:59.141Z,100638.59
2018-06-13T06:37:02.608Z,100636.64
2018-06-13T06:38:06.003Z,100630.42
2018-06-13T06:39:09.392Z,100632.15
2018-06-13T06:40:12.784Z,100629.04
2018-06-13T06:41:16.162Z,100630.42
2018-06-13T06:42:19.569Z,100627.09
2018-06-13T06:43:22.952Z,100627.92
2018-06-13T06:44:26.322Z,100626.77
2018-06-13T06:45:29.713Z,100625.97
2018-06-13T06:46:33.105Z,100623.44
2018-06-13T06:47:36.531Z,100627.00
2018-06-13T06:48:39.932Z,100628.96
2018-06-13T06:49:43.362Z,100630.58
2018-06-13T06:50:46.782Z,100622.71
2018-06-13T06:51:50.196Z,100636.56
2018-06-13T06:52:53.601Z,100632.99
2018-06-13T06:53:56.999Z,100632.07
2018-06-13T06:55:00.378Z,100638.17
2018-06-13T06:56:03.915Z,100637.02
2018-06-13T06:57:07.310Z,100636.45
2018-06-13T06:58:10.779Z,100630.92
2018-06-13T06:59:14.162Z,100631.50
2018-06-13T07:00:17.564Z,100636.67
2018-06-13T07:01:20.969Z,100635.30
2018-06-13T07:02:24.368Z,100642.78
2018-06-13T07:03:27.769Z,100634.95
2018-06-13T07:04:31.384Z,100630.58
2018-06-13T07:05:34.780Z,100635.18
2018-06-13T07:06:38.214Z,100632.30
2018-06-13T07:07:41.598Z,100625.16
2018-06-13T07:08:45.062Z,100639.33
2018-06-13T07:09:48.513Z,100640.59
2018-06-13T07:10:52.052Z,100640.36
2018-06-13T07:11:55.652Z,100636.22
2018-06-13T07:12:59.040Z,100639.79
2018-06-13T07:14:02.489Z,100643.36
2018-06-13T07:15:05.928Z,100642.32
2018-06-13T07:16:09.323Z,100641.86
2018-06-13T07:17:12.787Z,100645.55
2018-06-13T07:18:16.208Z,100641.41
2018-06-13T07:19:19.616Z,100642.67
2018-06-13T07:20:23.006Z,100647.50
2018-06-13T07:21:26.414Z,100647.50
2018-06-13T07:22:29.820Z,100649.38
2018-06-13T07:23:33.251Z,100649.12
2018-06-13T07:24:36.703Z,100646.35
2018-06-13T07:25:40.123Z,100652.72
2018-06-13T07:26:44.009Z,100648.00
2018-06-13T07:27:47.398Z,100657.09
2018-06-13T07:28:50.831Z,100657.67
2018-06-13T07:29:54.248Z,100649.38
2018-06-13T07:30:57.668Z,100651.56
2018-06-13T07:32:01.059Z,100655.94
2018-06-13T07:33:04.460Z,100658.70
2018-06-13T07:34:07.849Z,100654.79
2018-06-13T07:35:11.261Z,100653.98
2018-06-13T07:36:14.673Z,100655.37
2018-06-13T07:37:18.084Z,100653.98
2018-06-13T07:38:21.497Z,100655.59
2018-06-13T07:39:24.895Z,100652.84
2018-06-13T07:40:28.297Z,100657.21
2018-06-13T07:41:31.708Z,100649.69
2018-06-13T07:42:35.117Z,100658.59
2018-06-13T07:43:38.515Z,100653.64
2018-06-13T07:44:41.912Z,100656.64
2018-06-13T07:45:45.345Z,100662.97
2018-06-13T07:46:48.775Z,100666.31
2018-06-13T07:47:52.168Z,100662.97
2018-06-13T07:48:55.560Z,100659.40
2018-06-13T07:49:58.976Z,100661.02
2018-06-13T07:51:02.370Z,100661.02
2018-06-13T07:52:05.905Z,100654.91
2018-06-13T07:53:09.323Z,100655.72
2018-06-13T07:54:12.717Z,100656.52
2018-06-13T07:55:16.123Z,100656.52
2018-06-13T07:56:19.583Z,100644.77
2018-06-13T07:57:22.980Z,100653.52
2018-06-13T07:58:26.384Z,100653.76
2018-06-13T07:59:29.793Z,100649.84
2018-06-13T08:00:33.184Z,100645.34
2018-06-13T08:01:36.598Z,100640.63
2018-06-13T08:02:39.985Z,100647.19
2018-06-13T08:03:43.364Z,100654.22
2018-06-13T08:04:46.748Z,100655.60
2018-06-13T08:05:50.118Z,100654.22
2018-06-13T08:06:53.539Z,100658.13
2018-06-13T08:07:56.968Z,100663.66
2018-06-13T08:09:00.363Z,100665.28
2018-06-13T08:10:03.791Z,100663.89
2018-06-13T08:11:07.200Z,100658.83
2018-06-13T08:12:10.617Z,100666.20
2018-06-13T08:13:14.006Z,100663.09
2018-06-13T08:14:17.399Z,100667.23
2018-06-13T08:15:20.793Z,100671.37
2018-06-13T08:16:24.281Z,100670.58
2018-06-13T08:17:27.689Z,100671.15
2018-06-13T08:18:31.078Z,100675.88
2018-06-13T08:19:34.491Z,100674.48
2018-06-13T08:20:37.888Z,100677.25
2018-06-13T08:21:41.280Z,100681.40
2018-06-13T08:22:44.707Z,100686.12
2018-06-13T08:23:48.118Z,100686.70
2018-06-13T08:24:54.926Z,100682.55
2018-06-13T08:25:58.341Z,100681.75
2018-06-13T08:27:01.755Z,100681.17
2018-06-13T08:28:05.168Z,100679.78
2018-06-13T08:29:08.580Z,100683.94
2018-06-13T08:30:11.985Z,100680.59
2018-06-13T08:31:15.389Z,100686.47
2018-06-13T08:32:18.778Z,100690.04
2018-06-13T08:33:22.192Z,100685.66
2018-06-13T08:34:25.600Z,100693.03
2018-06-13T08:35:28.990Z,100691.19
2018-06-13T08:36:32.380Z,100697.52
2018-06-13T08:37:35.772Z,100692.80
2018-06-13T08:38:39.178Z,100689.23
2018-06-13T08:39:42.574Z,100693.38
2018-06-13T08:40:45.977Z,100688.30
2018-06-13T08:41:49.383Z,100685.08
2018-06-13T08:42:52.795Z,100689.92
2018-06-13T08:43:56.196Z,100692.23
2018-06-13T08:44:59.663Z,100694.98
2018-06-13T08:46:03.088Z,100691.42
2018-06-13T08:47:06.491Z,100695.80
2018-06-13T08:48:09.913Z,100690.27
2018-06-13T08:49:13.342Z,100691.99
2018-06-13T08:50:16.732Z,100687.16
2018-06-13T08:51:20.148Z,100686.34
2018-06-13T08:52:23.611Z,100692.45
2018-06-13T08:53:27.001Z,100693.84
2018-06-13T08:54:30.429Z,100695.80
2018-06-13T08:55:33.847Z,100680.82
2018-06-13T08:56:37.222Z,100683.36
2018-06-13T08:57:40.617Z,100686.12
2018-06-13T08:58:44.059Z,100683.70
2018-06-13T08:59:47.477Z,100681.17
2018-06-13T09:00:50.862Z,100678.41
2018-06-13T09:01:54.250Z,100674.26
2018-06-13T09:02:57.656Z,100682.55
2018-06-13T09:04:01.087Z,100686.47
2018-06-13T09:05:04.643Z,100687.27
2018-06-13T09:06:08.076Z,100689.23
2018-06-13T09:07:11.483Z,100689.46
2018-06-13T09:08:14.916Z,100682.20
2018-06-13T09:09:18.380Z,100681.86
2018-06-13T09:10:21.823Z,100690.84
2018-06-13T09:11:25.231Z,100689.23
2018-06-13T09:12:28.633Z,100682.55
2018-06-13T09:13:32.014Z,100690.61
2018-06-13T09:14:35.438Z,100694.98
2018-06-13T09:15:38.834Z,100685.31
2018-06-13T09:16:42.266Z,100688.08
2018-06-13T09:17:45.676Z,100687.27
2018-06-13T09:18:49.091Z,100685.20
2018-06-13T09:19:52.494Z,100693.61
2018-06-13T09:20:55.869Z,100690.61
2018-06-13T09:21:59.268Z,100690.04
2018-06-13T09:23:02.670Z,100694.76
2018-06-13T09:24:06.158Z,100693.95
2018-06-13T09:25:09.579Z,100698.33
2018-06-13T09:26:13.013Z,100700.52
2018-06-13T09:27:16.449Z,100699.14
2018-06-13T09:28:19.860Z,100698.09
2018-06-13T09:29:23.296Z,100703.05
2018-06-13T09:30:26.716Z,100703.05
2018-06-13T09:31:30.112Z,100705.81
2018-06-13T09:32:33.508Z,100705.24
2018-06-13T09:33:36.944Z,100705.24
2018-06-13T09:34:40.332Z,100703.97
2018-06-13T09:35:43.722Z,100706.62
2018-06-13T09:36:47.125Z,100703.05
2018-06-13T09:37:50.506Z,100700.98
2018-06-13T09:38:53.924Z,100708.58
2018-06-13T09:39:57.302Z,100706.39
2018-06-13T09:41:00.725Z,100701.67
2018-06-13T09:42:04.161Z,100706.62
2018-06-13T09:43:07.561Z,100709.73
2018-06-13T09:44:10.947Z,100702.82
2018-06-13T09:45:14.376Z,100703.05
2018-06-13T09:46:17.804Z,100711.34
2018-06-13T09:47:23.458Z,100704.89
2018-06-13T09:48:24.595Z,100709.96
2018-06-13T09:49:27.966Z,100710.54
2018-06-13T09:50:31.369Z,100709.16
2018-06-13T09:51:34.789Z,100706.84
2018-06-13T09:52:38.206Z,100709.16
2018-06-13T09:53:41.591Z,100705.81
2018-06-13T09:54:45.027Z,100699.94
2018-06-13T09:55:48.475Z,100706.97
2018-06-13T09:56:51.930Z,100708.58
2018-06-13T09:57:55.371Z,100703.05
2018-06-13T09:59:04.187Z,100702.82
2018-06-13T10:00:12.956Z,100701.44
2018-06-13T10:01:21.706Z,100706.97
2018-06-13T10:02:30.540Z,100696.02
2018-06-13T10:03:33.950Z,100709.73
2018-06-13T10:04:37.449Z,100712.16
2018-06-13T10:05:40.866Z,100711.92
2018-06-13T10:06:44.289Z,100711.92
2018-06-13T10:07:47.740Z,100709.73
2018-06-13T10:08:51.128Z,100703.62
2018-06-13T10:09:54.582Z,100706.39
2018-06-13T10:10:58.003Z,100709.50
2018-06-13T10:12:01.409Z,100711.92
2018-06-13T10:13:04.884Z,100713.30
2018-06-13T10:14:08.237Z,100710.66
2018-06-13T10:15:11.637Z,100713.88
2018-06-13T10:16:15.026Z,100706.04
2018-06-13T10:17:18.464Z,100713.88
2018-06-13T10:18:21.844Z,100707.77
2018-06-13T10:19:25.246Z,100711.11
2018-06-13T10:20:28.646Z,100712.27
2018-06-13T10:21:32.069Z,100717.45
2018-06-13T10:22:35.462Z,100708.34
2018-06-13T10:23:38.827Z,100714.11
2018-06-13T10:24:42.239Z,100711.11
2018-06-13T10:25:45.624Z,100714.69
2018-06-13T10:26:49.020Z,100711.69
2018-06-13T10:27:52.428Z,100714.11
2018-06-13T10:28:55.847Z,100718.25
2018-06-13T10:29:59.224Z,100719.64
2018-06-13T10:31:02.645Z,100716.30
2018-06-13T10:32:06.099Z,100717.11
2018-06-13T10:33:09.511Z,100717.68
2018-06-13T10:34:12.913Z,100715.49
2018-06-13T10:35:16.297Z,100720.45
2018-06-13T10:36:19.688Z,100711.58
2018-06-13T10:37:23.105Z,100712.95
2018-06-13T10:38:26.502Z,100720.67
2018-06-13T10:39:29.900Z,100712.16
2018-06-13T10:40:33.311Z,100715.72
2018-06-13T10:41:36.844Z,100713.19
2018-06-13T10:42:40.280Z,100715.72
2018-06-13T10:43:43.662Z,100715.95
2018-06-13T10:44:47.353Z,100718.48
2018-06-13T10:45:50.725Z,100715.03
2018-06-13T10:46:54.090Z,100715.72
2018-06-13T10:47:57.472Z,100721.48
2018-06-13T10:49:00.897Z,100719.30
2018-06-13T10:50:04.405Z,100726.20
2018-06-13T10:51:07.776Z,100715.60
2018-06-13T10:52:11.159Z,100720.67
2018-06-13T10:53:14.563Z,100720.67
2018-06-13T10:54:17.994Z,100724.82
2018-06-13T10:55:21.469Z,100720.10
2018-06-13T10:56:24.880Z,100720.22
2018-06-13T10:57:28.350Z,100719.30
2018-06-13T10:58:31.753Z,100722.05
2018-06-13T10:59:35.168Z,100715.03
2018-06-13T11:00:38.550Z,100718.02
2018-06-13T11:01:41.965Z,100726.44
2018-06-13T11:02:45.363Z,100725.86
2018-06-13T11:03:48.762Z,100731.97
2018-06-13T11:04:52.140Z,100730.01
2018-06-13T11:05:55.550Z,100721.02
2018-06-13T11:06:59.097Z,100728.63
2018-06-13T11:08:02.519Z,100727.81
2018-06-13T11:09:08.674Z,100724.94
2018-06-13T11:10:12.072Z,100728.86
2018-06-13T11:11:15.458Z,100730.01
2018-06-13T11:12:18.890Z,100724.82
2018-06-13T11:13:22.318Z,100724.48
2018-06-13T11:14:25.718Z,100730.01
2018-06-13T11:15:29.250Z,100727.02
2018-06-13T11:16:32.666Z,100728.16
2018-06-13T11:17:36.072Z,100724.70
2018-06-13T11:18:39.471Z,100729.78
2018-06-13T11:19:42.892Z,100733.92
2018-06-13T11:20:46.294Z,100733.69
2018-06-13T11:21:49.692Z,100736.22
2018-06-13T11:22:53.416Z,100732.77
2018-06-13T11:23:56.832Z,100738.41
2018-06-13T11:25:00.264Z,100742.33
2018-06-13T11:26:03.683Z,100737.38
2018-06-13T11:27:07.128Z,100734.38
2018-06-13T11:28:10.537Z,100744.63
2018-06-13T11:29:13.959Z,100735.53
2018-06-13T11:30:17.380Z,100741.28
2018-06-13T11:31:20.772Z,100741.86
2018-06-13T11:32:24.158Z,100736.91
2018-06-13T11:33:27.572Z,100738.30
2018-06-13T11:34:30.960Z,100732.03
2018-06-13T11:35:34.400Z,100741.86
2018-06-13T11:36:37.809Z,100745.20
2018-06-13T11:37:41.184Z,100733.19
2018-06-13T11:38:44.561Z,100742.44
2018-06-13T11:39:47.949Z,100742.20
2018-06-13T11:40:51.498Z,100738.87
2018-06-13T11:41:54.893Z,100738.95
2018-06-13T11:42:58.304Z,100740.02
2018-06-13T11:44:01.762Z,100745.55
2018-06-13T11:45:05.421Z,100741.97
2018-06-13T11:46:08.837Z,100738.63
2018-06-13T11:47:12.250Z,100741.97
2018-06-13T11:48:15.717Z,100743.36
2018-06-13T11:49:19.081Z,100744.16
2018-06-13T11:50:22.530Z,100740.02
2018-06-13T11:51:25.957Z,100746.13
2018-06-13T11:52:29.338Z,100732.37
2018-06-13T11:53:32.790Z,100744.73
2018-06-13T11:54:36.161Z,100740.33
2018-06-13T11:55:39.586Z,100739.21
2018-06-13T11:56:43.070Z,100739.78
2018-06-13T11:57:46.470Z,100741.16
2018-06-13T11:58:49.874Z,100737.83
2018-06-13T11:59:53.272Z,100744.48
2018-06-13T12:00:56.677Z,100744.73
2018-06-13T12:02:00.117Z,100741.48
2018-06-13T12:03:03.524Z,100741.97
2018-06-13T12:04:07.015Z,100742.55